Time;durP1;ratioP1;P1;durP2;ratioP2;P2;SDS_P1;SDS_P2;PMS_P1;PMS_P2;Temp;Humidity;BMP_temperature;BMP_pressure;BME280_temperature;BME280_humidity;BME280_pressure;Samples;Min_cycle;Max_cycle;Signal;HPM_P1;HPM_P2
2023/10/10 00:02:19;;;;;;;19.17;11.68;;;13.60;99.90;;;;;;7304678;32;20112;-55
2023/10/10 00:06:22;;;;;;;18.50;11.52;;;13.50;99.90;;;;;;7294416;32;20140;-56
2023/10/10 00:10:27;;;;;;;20.40;11.32;;;13.50;99.90;;;;;;7304320;32;20130;-56
2023/10/10 00:14:29;;;;;;;17.67;11.45;;;13.40;99.90;;;;;;7302678;32;20534;-57
2023/10/10 00:18:32;;;;;;;18.62;11.98;;;13.30;99.90;;;;;;7294592;32;20100;-57
2023/10/10 00:22:36;;;;;;;20.40;12.23;;;13.30;99.90;;;;;;7295321;32;20132;-56
2023/10/10 00:26:44;;;;;;;21.35;12.85;;;13.20;99.90;;;;;;7296272;32;20128;-56
2023/10/10 00:30:45;;;;;;;19.58;11.60;;;13.20;99.90;;;;;;7305857;32;21177;-56
2023/10/10 00:34:47;;;;;;;21.95;12.48;;;13.10;99.90;;;;;;7299035;32;20815;-56
2023/10/10 00:38:58;;;;;;;19.42;12.05;;;13.00;99.90;;;;;;7293154;32;20479;-55
2023/10/10 00:43:04;;;;;;;21.10;12.73;;;13.00;99.90;;;;;;7305379;32;20135;-57
2023/10/10 00:47:12;;;;;;;20.62;13.02;;;13.00;99.90;;;;;;7300641;32;20443;-56
2023/10/10 00:51:21;;;;;;;19.08;12.27;;;12.90;99.90;;;;;;7303896;32;20104;-57
2023/10/10 00:55:25;;;;;;;22.65;14.15;;;12.90;99.90;;;;;;7295813;32;20199;-58
2023/10/10 00:59:34;;;;;;;21.77;13.07;;;12.90;99.90;;;;;;7305882;32;20134;-56
2023/10/10 01:03:40;;;;;;;22.60;12.57;;;12.90;99.90;;;;;;7300864;32;20525;-57
2023/10/10 01:07:47;;;;;;;21.37;13.73;;;12.90;99.90;;;;;;7298646;32;20232;-58
2023/10/10 01:11:49;;;;;;;25.83;13.77;;;12.90;99.90;;;;;;7304563;32;20138;-57
2023/10/10 01:15:50;;;;;;;24.77;13.95;;;12.90;99.90;;;;;;7300375;32;20480;-55
2023/10/10 01:19:52;;;;;;;20.58;13.43;;;12.90;99.90;;;;;;7303552;32;20640;-57
2023/10/10 01:23:58;;;;;;;23.00;15.98;;;12.90;99.90;;;;;;7306128;32;20127;-57
2023/10/10 01:28:05;;;;;;;24.33;15.20;;;12.90;99.90;;;;;;7296001;32;20666;-56
2023/10/10 01:32:10;;;;;;;;;;;12.80;99.90;;;;;;7303253;32;20135;-56
2023/10/10 01:36:12;;;;;;;24.37;15.27;;;12.80;99.90;;;;;;7304783;32;20319;-57
2023/10/10 01:40:17;;;;;;;24.50;15.00;;;12.80;99.90;;;;;;7299062;32;20175;-56
2023/10/10 01:44:22;;;;;;;25.42;15.55;;;12.80;99.90;;;;;;7298480;32;20142;-56
2023/10/10 01:48:24;;;;;;;26.00;15.55;;;12.70;99.90;;;;;;7295303;32;20166;-57
2023/10/10 01:52:27;;;;;;;24.95;15.13;;;12.70;99.90;;;;;;7301604;32;20241;-55
2023/10/10 01:56:29;;;;;;;27.05;15.68;;;12.70;99.90;;;;;;7299723;32;20487;-57
2023/10/10 02:00:34;;;;;;;26.92;16.85;;;12.60;99.90;;;;;;7296447;32;20116;-57
2023/10/10 02:04:36;;;;;;;24.65;16.92;;;12.60;99.90;;;;;;7301392;32;20234;-56
2023/10/10 02:08:38;;;;;;;23.08;16.42;;;12.60;99.90;;;;;;7300508;32;20350;-57
2023/10/10 02:12:44;;;;;;;29.58;18.15;;;12.50;99.90;;;;;;7302996;32;20521;-57
2023/10/10 02:16:49;;;;;;;30.23;17.57;;;12.50;99.90;;;;;;7296705;32;20107;-57
2023/10/10 02:20:51;;;;;;;28.67;17.80;;;12.50;99.90;;;;;;7303114;32;20346;-57
2023/10/10 02:33:37;;;;;;;25.90;18.20;;;12.50;99.90;;;;;;7297320;32;20195;-55
2023/10/10 02:37:44;;;;;;;25.48;17.50;;;12.50;99.90;;;;;;7303677;32;20126;-56
2023/10/10 02:41:51;;;;;;;28.10;19.23;;;12.50;99.90;;;;;;7299347;32;20567;-56
2023/10/10 02:45:53;;;;;;;32.60;20.15;;;12.50;99.90;;;;;;7298106;32;20206;-57
2023/10/10 02:49:56;;;;;;;39.05;21.85;;;12.40;99.90;;;;;;7300317;32;20300;-55
2023/10/10 02:53:58;;;;;;;32.25;22.85;;;12.50;99.90;;;;;;7300195;32;20107;-57
2023/10/10 02:58:00;;;;;;;36.90;22.05;;;12.40;99.90;;;;;;7301963;32;20112;-55
2023/10/10 03:02:18;;;;;;;35.65;23.08;;;12.50;99.90;;;;;;7298823;32;20169;-56
2023/10/10 03:06:28;;;;;;;40.50;25.23;;;12.50;99.90;;;;;;7300356;32;20112;-55
2023/10/10 03:10:41;;;;;;;38.50;25.02;;;12.50;99.90;;;;;;7289006;32;20725;-56
2023/10/10 03:14:44;;;;;;;39.55;26.02;;;12.50;99.90;;;;;;7299112;32;20560;-57
2023/10/10 03:35:33;;;;;;;33.05;23.20;;;12.40;99.90;;;;;;7299026;32;20808;-57
2023/10/10 03:39:42;;;;;;;32.38;22.85;;;12.30;99.90;;;;;;7297994;32;20191;-55
2023/10/10 05:23:49;;;;;;;34.35;22.33;;;12.40;99.90;;;;;;7298244;32;20284;-55
2023/10/10 05:27:52;;;;;;;33.47;20.33;;;12.40;99.90;;;;;;7300449;32;20355;-56
2023/10/10 05:31:59;;;;;;;32.03;20.65;;;12.50;99.90;;;;;;7290170;32;20224;-56
2023/10/10 05:36:06;;;;;;;29.90;20.15;;;12.50;99.90;;;;;;7295718;32;20175;-56
2023/10/10 05:40:09;;;;;;;31.75;20.30;;;12.50;99.90;;;;;;7303396;32;20116;-55
2023/10/10 05:44:13;;;;;;;30.90;18.37;;;12.50;99.90;;;;;;7305631;32;20169;-57
2023/10/10 05:48:15;;;;;;;29.65;18.23;;;12.50;99.90;;;;;;7291212;32;20478;-56
2023/10/10 05:52:17;;;;;;;30.52;18.50;;;12.50;99.90;;;;;;7302029;32;20134;-56
2023/10/10 05:56:19;;;;;;;32.90;18.55;;;12.60;99.90;;;;;;7297068;32;20187;-56
2023/10/10 06:00:25;;;;;;;28.50;18.45;;;12.60;99.90;;;;;;7298926;32;20193;-57
2023/10/10 06:04:28;;;;;;;28.70;18.02;;;12.60;99.90;;;;;;7296337;32;20115;-56
2023/10/10 06:08:31;;;;;;;31.65;17.05;;;12.70;99.90;;;;;;7295956;32;20524;-57
2023/10/10 06:12:36;;;;;;;29.27;17.87;;;12.70;99.90;;;;;;7299674;32;20124;-57
2023/10/10 06:16:38;;;;;;;34.60;18.77;;;12.80;99.90;;;;;;7294231;32;20242;-57
2023/10/10 06:20:43;;;;;;;29.95;19.27;;;12.90;99.90;;;;;;7300457;32;20518;-57
2023/10/10 06:25:06;;;;;;;33.08;19.10;;;13.00;99.90;;;;;;7291604;32;20751;-57
2023/10/10 06:29:08;;;;;;;31.02;19.40;;;13.00;99.90;;;;;;7292550;32;20562;-56
2023/10/10 06:33:14;;;;;;;28.35;17.55;;;13.10;99.90;;;;;;7292992;32;20136;-56
2023/10/10 06:37:15;;;;;;;27.37;16.55;;;13.20;99.90;;;;;;7293482;32;20694;-57
2023/10/10 06:41:22;;;;;;;26.42;16.62;;;13.30;99.90;;;;;;7300781;32;20812;-56
2023/10/10 06:45:25;;;;;;;28.15;16.95;;;13.40;99.90;;;;;;7302868;32;20211;-56
2023/10/10 06:49:43;;;;;;;24.00;15.38;;;13.40;99.90;;;;;;7297974;32;20528;-56
2023/10/10 06:53:45;;;;;;;26.98;15.80;;;13.50;99.90;;;;;;7296491;32;20185;-57
2023/10/10 06:57:57;;;;;;;21.12;14.35;;;13.60;99.90;;;;;;7296620;32;20112;-57
2023/10/10 07:06:23;;;;;;;19.70;13.68;;;13.70;99.90;;;;;;7297833;32;20671;-57
2023/10/10 07:10:32;;;;;;;21.75;13.40;;;13.80;99.90;;;;;;7298111;32;20105;-57
2023/10/10 07:14:40;;;;;;;18.85;12.10;;;13.90;99.90;;;;;;7298080;32;20194;-57
2023/10/10 07:18:42;;;;;;;25.20;12.63;;;14.00;99.90;;;;;;7291413;32;20150;-58
2023/10/10 07:22:45;;;;;;;25.98;12.75;;;14.10;99.90;;;;;;7298189;32;20115;-57
2023/10/10 07:26:59;;;;;;;21.87;11.45;;;14.20;99.90;;;;;;7295350;32;20214;-56
2023/10/10 07:31:00;;;;;;;19.02;11.50;;;14.20;99.90;;;;;;7295027;32;20252;-57
2023/10/10 07:35:03;;;;;;;18.02;11.73;;;14.30;99.90;;;;;;7298638;32;20103;-57
2023/10/10 07:43:27;;;;;;;19.75;11.77;;;14.30;99.90;;;;;;7299196;32;20647;-56
2023/10/10 07:47:32;;;;;;;18.83;10.60;;;14.40;99.90;;;;;;7290867;32;20582;-56
2023/10/10 07:51:34;;;;;;;17.50;10.65;;;14.40;99.90;;;;;;7296595;32;20213;-56
2023/10/10 07:59:58;;;;;;;15.82;9.60;;;14.70;99.90;;;;;;7297400;32;20257;-57
2023/10/10 08:04:04;;;;;;;19.48;10.18;;;14.80;99.90;;;;;;7297016;32;20446;-57
2023/10/10 08:08:13;;;;;;;16.45;9.88;;;14.90;99.90;;;;;;7297483;32;20639;-58
2023/10/10 08:12:16;;;;;;;16.50;9.38;;;15.10;99.90;;;;;;7302955;32;20203;-57
2023/10/10 08:16:22;;;;;;;16.65;9.35;;;15.20;99.90;;;;;;7301920;32;20165;-58
2023/10/10 08:24:46;;;;;;;16.70;9.32;;;15.50;99.90;;;;;;7299108;32;20157;-58
2023/10/10 08:28:49;;;;;;;14.75;8.95;;;15.60;99.90;;;;;;7303031;32;20166;-58
2023/10/10 08:32:51;;;;;;;15.02;9.75;;;15.70;99.90;;;;;;7302260;32;20193;-58
2023/10/10 08:37:02;;;;;;;13.30;8.57;;;15.80;99.90;;;;;;7295160;32;20495;-57
2023/10/10 08:41:08;;;;;;;15.05;8.50;;;15.90;99.90;;;;;;7304700;32;20922;-58
2023/10/10 08:45:22;;;;;;;17.87;9.88;;;16.00;99.90;;;;;;7302906;32;20185;-57
2023/10/10 08:49:27;;;;;;;18.17;10.05;;;16.10;99.90;;;;;;7295694;32;20513;-58
2023/10/10 08:53:34;;;;;;;15.25;8.70;;;16.30;99.90;;;;;;7303058;32;20130;-58
2023/10/10 08:57:40;;;;;;;13.70;8.70;;;16.40;99.90;;;;;;7302031;32;20116;-58
2023/10/10 09:01:42;;;;;;;15.73;8.63;;;16.70;99.90;;;;;;7295599;32;20226;-58
2023/10/10 09:05:44;;;;;;;13.68;8.48;;;16.90;99.90;;;;;;7304431;32;20118;-58
2023/10/10 09:10:04;;;;;;;12.20;7.12;;;17.10;99.90;;;;;;7301821;32;20137;-58
2023/10/10 09:14:09;;;;;;;17.08;8.63;;;17.40;99.90;;;;;;7298573;32;20127;-57
2023/10/10 09:18:17;;;;;;;12.82;7.53;;;17.70;99.90;;;;;;7300859;32;20207;-58
2023/10/10 09:22:30;;;;;;;12.10;7.50;;;18.10;99.90;;;;;;7297458;32;20134;-57
2023/10/10 09:26:36;;;;;;;15.35;8.07;;;18.40;99.90;;;;;;7297866;32;20579;-58
2023/10/10 09:30:45;;;;;;;16.30;8.05;;;18.60;99.90;;;;;;7299509;32;20475;-57
2023/10/10 09:34:49;;;;;;;14.75;6.65;;;18.60;99.90;;;;;;7299210;32;20190;-57
2023/10/10 09:38:57;;;;;;;10.93;6.93;;;18.70;99.90;;;;;;7296915;32;20135;-57
2023/10/10 09:55:42;;;;;;;13.25;6.35;;;19.70;99.90;;;;;;7298363;32;20308;-59
2023/10/10 09:59:45;;;;;;;11.45;6.72;;;20.00;99.90;;;;;;7291551;32;20247;-57
2023/10/10 10:04:03;;;;;;;12.15;6.50;;;20.20;99.90;;;;;;7293773;32;20131;-57
2023/10/10 10:08:21;;;;;;;;;;;20.30;99.90;;;;;;7293974;32;20221;-58
2023/10/10 10:12:45;;;;;;;10.77;5.85;;;20.20;99.90;;;;;;7284286;32;20239;-57
2023/10/10 10:16:54;;;;;;;14.27;6.45;;;20.20;99.90;;;;;;7272979;32;20847;-57
2023/10/10 10:21:16;;;;;;;11.07;5.55;;;20.10;99.90;;;;;;7277663;32;20343;-57
2023/10/10 10:25:22;;;;;;;12.13;6.00;;;20.00;99.90;;;;;;7285359;32;20198;-58
2023/10/10 10:29:29;;;;;;;11.88;5.62;;;19.90;99.90;;;;;;7283255;32;20280;-57
2023/10/10 10:33:33;;;;;;;10.13;5.15;;;19.90;99.90;;;;;;7285595;32;20511;-57
2023/10/10 10:37:35;;;;;;;11.12;5.28;;;19.90;99.90;;;;;;7293685;32;20194;-56
2023/10/10 10:41:47;;;;;;;12.02;5.60;;;19.90;99.90;;;;;;7292094;32;20118;-57
2023/10/10 10:46:07;;;;;;;10.55;5.20;;;19.90;99.90;;;;;;7296943;32;20100;-56
2023/10/10 10:50:27;;;;;;;10.25;5.80;;;19.90;99.90;;;;;;7294052;32;20261;-56
2023/10/10 10:54:35;;;;;;;10.35;4.82;;;19.80;99.90;;;;;;7296674;32;20119;-56
2023/10/10 10:59:23;;;;;;;9.77;5.12;;;19.70;99.90;;;;;;7291115;32;20764;-57
2023/10/10 11:02:59;;;;;;;9.93;5.10;;;19.70;99.90;;;;;;7287959;32;20232;-55
2023/10/10 11:07:07;;;;;;;9.80;5.07;;;19.80;99.90;;;;;;7298323;32;20119;-56
2023/10/10 11:15:37;;;;;;;10.50;5.12;;;20.00;99.90;;;;;;7296172;32;20179;-56
2023/10/10 11:19:39;;;;;;;8.98;5.32;;;20.00;99.90;;;;;;7292752;32;20299;-56
2023/10/10 11:23:41;;;;;;;8.85;4.55;;;20.00;99.90;;;;;;7293660;32;20716;-57
2023/10/10 11:27:43;;;;;;;8.43;5.15;;;20.10;99.90;;;;;;7293377;32;20162;-56
2023/10/10 11:31:49;;;;;;;11.93;4.82;;;20.10;99.90;;;;;;7289727;32;20146;-56
2023/10/10 11:36:01;;;;;;;10.02;5.35;;;20.20;99.90;;;;;;7290531;32;20726;-57
2023/10/10 11:40:19;;;;;;;10.93;4.95;;;20.30;99.90;;;;;;7292990;32;20130;-57
2023/10/10 11:44:21;;;;;;;10.75;5.12;;;20.40;99.90;;;;;;7297220;32;20215;-57
2023/10/10 11:48:26;;;;;;;8.20;4.82;;;20.30;99.90;;;;;;7299153;32;20104;-57
2023/10/10 11:52:28;;;;;;;11.15;5.18;;;20.50;99.90;;;;;;7293971;32;20685;-57
2023/10/10 11:56:36;;;;;;;12.75;5.18;;;20.50;99.90;;;;;;7295666;32;20127;-57
2023/10/10 12:00:44;;;;;;;13.05;5.20;;;20.60;99.90;;;;;;7299238;32;20132;-57
2023/10/10 12:04:45;;;;;;;10.02;5.25;;;20.60;99.90;;;;;;7299710;32;20215;-56
2023/10/10 12:08:53;;;;;;;10.23;5.35;;;20.80;99.90;;;;;;7292501;32;20264;-57
2023/10/10 12:12:55;;;;;;;11.73;5.05;;;20.90;99.90;;;;;;7290444;32;22167;-57
2023/10/10 12:17:05;;;;;;;10.55;5.65;;;21.00;99.90;;;;;;7298738;32;20898;-58
2023/10/10 12:21:06;;;;;;;9.20;4.72;;;21.00;99.90;;;;;;7296804;32;20115;-57
2023/10/10 12:25:13;;;;;;;9.40;4.90;;;21.10;99.90;;;;;;7295497;32;20088;-57
2023/10/10 12:29:16;;;;;;;11.30;5.12;;;21.20;99.90;;;;;;7291147;32;20262;-57
2023/10/10 12:33:19;;;;;;;9.15;4.75;;;21.30;99.90;;;;;;7291527;32;20210;-57
2023/10/10 12:37:23;;;;;;;8.80;4.60;;;21.30;99.90;;;;;;7297334;32;20158;-58
2023/10/10 12:41:26;;;;;;;7.22;4.40;;;21.50;99.90;;;;;;7294524;32;20119;-56
2023/10/10 12:45:29;;;;;;;10.68;4.20;;;21.50;99.90;;;;;;7299180;32;20245;-57
2023/10/10 12:49:36;;;;;;;8.40;4.43;;;21.60;99.90;;;;;;7293878;32;20198;-57
2023/10/10 12:53:42;;;;;;;13.20;4.37;;;21.60;99.90;;;;;;7291128;32;20164;-56
2023/10/10 12:57:46;;;;;;;11.93;4.00;;;21.70;99.90;;;;;;7296697;32;20099;-57
2023/10/10 13:01:48;;;;;;;10.43;4.60;;;21.80;99.90;;;;;;7295808;32;20281;-57
2023/10/10 13:05:58;;;;;;;8.60;4.07;;;21.90;99.90;;;;;;7296974;32;20178;-62
2023/10/10 13:10:10;;;;;;;7.72;3.70;;;21.90;99.90;;;;;;7299609;32;20096;-57
2023/10/10 13:14:15;;;;;;;10.63;4.12;;;22.00;99.90;;;;;;7290845;32;20179;-56
2023/10/10 13:18:20;;;;;;;9.00;3.97;;;22.10;99.90;;;;;;7295365;32;20099;-57
2023/10/10 13:22:22;;;;;;;12.65;3.95;;;22.20;99.90;;;;;;7296199;32;20123;-57
2023/10/10 13:26:25;;;;;;;10.80;4.00;;;22.20;99.90;;;;;;7294823;32;20123;-57
2023/10/10 13:30:27;;;;;;;11.00;3.95;;;22.40;99.90;;;;;;7294169;32;20161;-57
2023/10/10 13:34:28;;;;;;;10.50;4.78;;;22.50;99.90;;;;;;7297192;32;20119;-57
2023/10/10 13:38:30;;;;;;;10.27;3.72;;;22.50;99.90;;;;;;7295766;32;20107;-57
2023/10/10 13:42:32;;;;;;;9.38;4.65;;;22.60;99.90;;;;;;7293341;32;20322;-57
2023/10/10 13:46:35;;;;;;;12.52;4.37;;;22.70;99.90;;;;;;7295890;32;20271;-58
2023/10/10 13:50:44;;;;;;;11.63;4.37;;;22.70;99.90;;;;;;7292987;32;20193;-58
2023/10/10 13:54:46;;;;;;;11.32;4.37;;;22.80;99.90;;;;;;7294850;32;20171;-58
2023/10/10 13:58:48;;;;;;;10.70;3.97;;;22.90;99.90;;;;;;7298695;32;20226;-57
2023/10/10 14:02:50;;;;;;;13.55;4.05;;;22.80;99.90;;;;;;7291400;32;20641;-57
2023/10/10 14:06:54;;;;;;;7.97;4.00;;;22.80;99.90;;;;;;7293451;32;20244;-57
2023/10/10 14:10:59;;;;;;;9.23;4.53;;;22.80;99.90;;;;;;7297691;32;20130;-57
2023/10/10 14:15:01;;;;;;;12.85;3.87;;;22.80;99.90;;;;;;7293095;32;20175;-57
2023/10/10 14:19:04;;;;;;;11.70;4.60;;;22.90;99.90;;;;;;7292458;32;20771;-62
2023/10/10 14:23:06;;;;;;;8.70;3.87;;;22.80;99.90;;;;;;7297349;32;20646;-62
2023/10/10 14:27:08;;;;;;;8.18;4.15;;;22.80;99.90;;;;;;7297740;32;20161;-61
2023/10/10 14:31:13;;;;;;;10.85;4.25;;;22.90;99.90;;;;;;7292750;32;20234;-61
2023/10/10 14:35:15;;;;;;;9.38;4.60;;;22.80;99.90;;;;;;7299398;32;20177;-60
2023/10/10 14:39:31;;;;;;;9.13;4.37;;;22.70;99.90;;;;;;7288805;32;20265;-60
2023/10/10 14:43:34;;;;;;;12.98;4.22;;;22.70;99.90;;;;;;7295375;32;20143;-60
2023/10/10 14:47:39;;;;;;;13.25;4.75;;;22.60;99.90;;;;;;7290804;32;20152;-60
2023/10/10 14:51:40;;;;;;;8.75;4.45;;;22.60;99.90;;;;;;7297871;32;20292;-61
2023/10/10 14:55:45;;;;;;;8.65;4.10;;;22.60;99.90;;;;;;7292998;32;20133;-62
2023/10/10 14:59:48;;;;;;;9.68;4.43;;;22.60;99.90;;;;;;7296887;32;20096;-62
2023/10/10 15:03:51;;;;;;;9.20;4.00;;;22.50;99.90;;;;;;7291710;32;20545;-61
2023/10/10 15:07:55;;;;;;;12.85;4.25;;;22.50;99.90;;;;;;7292912;32;20345;-57
2023/10/10 15:12:01;;;;;;;9.68;4.18;;;22.40;99.90;;;;;;7292537;32;20105;-57
2023/10/10 15:16:05;;;;;;;8.52;3.95;;;22.20;99.90;;;;;;7288344;32;20773;-57
2023/10/10 15:20:12;;;;;;;7.35;3.80;;;22.20;99.90;;;;;;7290407;32;20253;-57
2023/10/10 15:24:15;;;;;;;7.20;4.07;;;22.20;99.90;;;;;;7295532;32;20136;-57
2023/10/10 15:28:16;;;;;;;9.60;4.35;;;22.20;99.90;;;;;;7289035;32;20319;-57
2023/10/10 15:32:20;;;;;;;10.55;3.25;;;22.00;99.90;;;;;;7292798;32;20122;-57
2023/10/10 15:36:22;;;;;;;11.02;4.10;;;21.80;99.90;;;;;;7292202;32;20116;-56
2023/10/10 15:40:23;;;;;;;9.57;3.83;;;21.80;99.90;;;;;;7292230;32;20205;-56
2023/10/10 15:44:27;;;;;;;7.60;3.53;;;21.80;99.90;;;;;;7289877;32;20118;-56
2023/10/10 15:48:28;;;;;;;7.55;3.83;;;21.60;99.90;;;;;;7294999;32;20183;-56
2023/10/10 15:52:33;;;;;;;7.65;4.12;;;21.40;99.90;;;;;;7291071;32;20427;-57
2023/10/10 15:56:38;;;;;;;9.18;4.35;;;21.30;99.90;;;;;;7292879;32;20104;-57
2023/10/10 16:00:39;;;;;;;8.05;3.70;;;21.10;99.90;;;;;;7295181;32;20096;-57
2023/10/10 16:04:43;;;;;;;10.32;3.40;;;21.00;99.90;;;;;;7292596;32;20257;-58
2023/10/10 16:08:49;;;;;;;8.63;3.60;;;20.70;99.90;;;;;;7293820;32;20116;-57
2023/10/10 16:12:51;;;;;;;8.40;3.83;;;20.60;99.90;;;;;;7289864;32;20181;-54
2023/10/10 16:16:53;;;;;;;7.70;4.07;;;20.50;99.90;;;;;;7293603;32;20273;-58
2023/10/10 16:20:55;;;;;;;11.63;3.90;;;20.30;99.90;;;;;;7295320;32;20125;-56
2023/10/10 16:24:57;;;;;;;9.02;4.15;;;20.10;99.90;;;;;;7301237;32;20225;-57
2023/10/10 16:28:59;;;;;;;9.88;3.30;;;19.80;99.90;;;;;;7300904;32;20100;-56
2023/10/10 16:33:02;;;;;;;8.85;3.75;;;19.70;99.90;;;;;;7299445;32;20485;-57
2023/10/10 16:37:05;;;;;;;5.20;3.20;;;19.50;99.90;;;;;;7305320;32;20122;-57
2023/10/10 16:41:07;;;;;;;10.40;3.92;;;19.30;99.90;;;;;;7306742;32;20179;-57
2023/10/10 16:45:10;;;;;;;6.90;3.70;;;19.10;99.90;;;;;;7305701;32;20175;-59
2023/10/10 16:49:14;;;;;;;12.37;4.03;;;18.90;99.90;;;;;;7299415;32;20100;-57
2023/10/10 16:53:16;;;;;;;10.88;4.37;;;18.70;99.90;;;;;;7302449;32;20251;-56
2023/10/10 16:57:22;;;;;;;8.88;3.70;;;18.40;99.90;;;;;;7296775;32;20237;-56
2023/10/10 17:01:27;;;;;;;8.68;4.07;;;18.10;99.90;;;;;;7295699;32;20131;-55
2023/10/10 17:05:36;;;;;;;14.60;4.37;;;17.80;99.90;;;;;;7294371;32;20169;-55
2023/10/10 17:09:38;;;;;;;11.20;4.55;;;17.60;99.90;;;;;;7298619;32;20112;-55
2023/10/10 17:13:41;;;;;;;10.90;4.72;;;17.30;99.90;;;;;;7294361;32;20474;-55
2023/10/10 17:17:44;;;;;;;10.00;4.32;;;17.10;99.90;;;;;;7299316;32;20261;-55
2023/10/10 17:21:47;;;;;;;11.55;4.60;;;17.00;99.90;;;;;;7297187;32;20170;-55
2023/10/10 17:25:48;;;;;;;9.60;3.95;;;16.70;99.90;;;;;;7298955;32;20108;-55
2023/10/10 17:29:50;;;;;;;7.10;4.60;;;16.60;99.90;;;;;;7301039;32;20171;-55
2023/10/10 17:33:56;;;;;;;8.32;4.00;;;16.40;99.90;;;;;;7302118;32;20121;-55
2023/10/10 17:37:59;;;;;;;11.75;4.47;;;16.20;99.90;;;;;;7300652;32;20368;-56
2023/10/10 17:42:01;;;;;;;10.50;4.03;;;16.10;99.90;;;;;;7294623;32;20419;-55
2023/10/10 17:46:03;;;;;;;10.05;4.05;;;15.90;99.90;;;;;;7299153;32;20095;-56
2023/10/10 17:50:06;;;;;;;10.57;4.10;;;15.90;99.90;;;;;;7297929;32;20096;-55
2023/10/10 17:54:08;;;;;;;8.65;4.22;;;15.70;99.90;;;;;;7300291;32;20128;-56
2023/10/10 17:58:10;;;;;;;8.40;3.92;;;15.60;99.90;;;;;;7303130;32;20528;-56
2023/10/10 18:02:12;;;;;;;8.70;4.22;;;15.40;99.90;;;;;;7299249;32;20111;-57
2023/10/10 18:06:20;;;;;;;9.57;4.40;;;15.30;99.90;;;;;;7301552;32;20123;-57
2023/10/10 18:10:23;;;;;;;8.75;4.20;;;15.20;99.90;;;;;;7300041;32;20669;-56
2023/10/10 18:14:24;;;;;;;9.10;4.47;;;15.10;99.90;;;;;;7294673;32;20536;-56
2023/10/10 18:18:28;;;;;;;8.43;4.25;;;15.00;99.90;;;;;;7301455;32;20221;-57
2023/10/10 18:22:30;;;;;;;8.25;4.47;;;14.90;99.90;;;;;;7299602;32;20104;-56
2023/10/10 18:26:37;;;;;;;8.70;4.45;;;14.80;99.90;;;;;;7302754;32;20104;-56
2023/10/10 18:30:40;;;;;;;8.02;4.37;;;14.80;99.90;;;;;;7300868;32;20175;-56
2023/10/10 18:34:42;;;;;;;8.13;4.10;;;14.70;99.90;;;;;;7295136;32;20107;-57
2023/10/10 18:38:45;;;;;;;11.00;4.90;;;14.60;99.90;;;;;;7299359;32;20178;-56
2023/10/10 18:42:48;;;;;;;8.25;4.20;;;14.50;99.90;;;;;;7296103;32;20274;-56
2023/10/10 18:46:49;;;;;;;8.77;4.65;;;14.40;99.90;;;;;;7296722;32;20124;-56
2023/10/10 18:50:52;;;;;;;10.43;4.82;;;14.30;99.90;;;;;;7298589;32;20128;-56
2023/10/10 18:54:54;;;;;;;11.80;4.93;;;14.30;99.90;;;;;;7293372;32;20257;-56
2023/10/10 18:58:55;;;;;;;9.50;4.20;;;14.20;99.90;;;;;;7297833;32;20104;-56
2023/10/10 19:02:57;;;;;;;9.43;4.60;;;14.20;99.90;;;;;;7296426;32;20126;-57
2023/10/10 19:06:59;;;;;;;12.40;4.95;;;14.20;99.90;;;;;;7299804;32;20104;-57
2023/10/10 19:11:02;;;;;;;11.05;5.03;;;14.10;99.90;;;;;;7294731;32;20495;-56
2023/10/10 19:15:06;;;;;;;11.05;5.28;;;14.00;99.90;;;;;;7299166;32;20103;-56
2023/10/10 19:19:08;;;;;;;8.77;4.93;;;14.00;99.90;;;;;;7300128;32;20225;-57
2023/10/10 19:23:09;;;;;;;10.98;4.50;;;14.00;99.90;;;;;;7300382;32;20118;-56
2023/10/10 19:27:12;;;;;;;13.48;6.45;;;14.00;99.90;;;;;;7299990;32;20187;-56
2023/10/10 19:31:14;;;;;;;7.85;4.68;;;14.00;99.90;;;;;;7300750;32;20186;-56
2023/10/10 19:35:17;;;;;;;8.68;5.30;;;14.00;99.90;;;;;;7294749;32;20543;-56
2023/10/10 19:39:21;;;;;;;9.52;5.10;;;14.00;99.90;;;;;;7296991;32;20123;-56
2023/10/10 19:43:25;;;;;;;12.23;5.40;;;14.00;99.90;;;;;;7298003;32;20099;-57
2023/10/10 19:47:26;;;;;;;12.40;5.47;;;14.10;99.90;;;;;;7300590;32;20271;-56
2023/10/10 19:51:28;;;;;;;10.27;5.10;;;14.20;99.90;;;;;;7299809;32;20289;-56
2023/10/10 19:55:33;;;;;;;8.63;5.40;;;14.20;99.90;;;;;;7296257;32;20120;-56
2023/10/10 19:59:37;;;;;;;8.75;5.18;;;14.20;99.90;;;;;;7295174;32;20104;-56
2023/10/10 20:03:42;;;;;;;10.23;5.72;;;14.30;99.90;;;;;;7300592;32;20194;-57
2023/10/10 20:07:47;;;;;;;11.50;5.43;;;14.30;99.90;;;;;;7304826;32;20623;-56
2023/10/10 20:11:49;;;;;;;10.82;5.78;;;14.50;99.90;;;;;;7304237;32;20209;-57
2023/10/10 20:15:52;;;;;;;9.27;4.47;;;14.60;99.90;;;;;;7302628;32;20540;-56
2023/10/10 20:19:55;;;;;;;11.48;5.50;;;14.60;99.90;;;;;;7302426;32;20127;-57
2023/10/10 20:23:57;;;;;;;9.10;5.37;;;14.70;99.90;;;;;;7304486;32;20498;-56
2023/10/10 20:27:59;;;;;;;14.23;6.45;;;14.70;99.90;;;;;;7302460;32;20474;-56
2023/10/10 20:32:01;;;;;;;11.45;6.07;;;14.70;99.90;;;;;;7297462;32;20150;-57
2023/10/10 20:36:04;;;;;;;11.20;5.93;;;14.80;99.90;;;;;;7296957;32;20471;-57
2023/10/10 20:40:07;;;;;;;8.93;5.45;;;15.00;99.90;;;;;;7298175;32;20104;-56
2023/10/10 20:44:09;;;;;;;11.48;5.93;;;15.00;99.90;;;;;;7298519;32;20191;-56
2023/10/10 20:48:21;;;;;;;11.35;6.07;;;15.10;99.90;;;;;;7301453;32;20108;-55
2023/10/10 20:52:25;;;;;;;13.70;5.80;;;15.20;99.90;;;;;;7301460;32;20099;-56
2023/10/10 20:56:27;;;;;;;8.98;5.15;;;15.30;99.90;;;;;;7300396;32;20481;-56
2023/10/10 21:00:29;;;;;;;11.90;5.43;;;15.40;99.90;;;;;;7296847;32;20181;-55
2023/10/10 21:04:33;;;;;;;10.75;5.70;;;15.40;99.90;;;;;;7301342;32;20195;-57
2023/10/10 21:08:35;;;;;;;9.38;5.28;;;15.50;99.90;;;;;;7301555;32;20118;-56
2023/10/10 21:12:38;;;;;;;10.07;4.90;;;15.50;99.90;;;;;;7297613;32;20100;-56
2023/10/10 21:16:40;;;;;;;14.23;5.10;;;15.50;99.90;;;;;;7295908;32;20514;-56
2023/10/10 21:20:42;;;;;;;8.60;4.87;;;15.50;99.90;;;;;;7294434;32;20096;-56
2023/10/10 21:25:05;;;;;;;8.93;5.10;;;15.60;99.90;;;;;;7303877;32;20100;-56
2023/10/10 21:29:07;;;;;;;9.25;4.93;;;15.60;99.90;;;;;;7301825;32;20876;-56
2023/10/10 21:33:09;;;;;;;9.55;5.15;;;15.70;99.90;;;;;;7294473;32;20533;-56
2023/10/10 21:37:13;;;;;;;9.68;5.47;;;15.70;99.90;;;;;;7300620;32;20580;-57
2023/10/10 21:41:15;;;;;;;8.02;4.80;;;15.70;99.90;;;;;;7302035;32;20103;-55
2023/10/10 21:45:18;;;;;;;9.32;4.72;;;15.70;99.90;;;;;;7298089;32;20237;-56
2023/10/10 21:49:21;;;;;;;8.68;4.97;;;15.80;99.90;;;;;;7295587;32;20762;-56
2023/10/10 21:53:23;;;;;;;7.72;4.43;;;15.70;99.90;;;;;;7302241;32;20217;-56
2023/10/10 21:57:24;;;;;;;10.48;5.05;;;15.80;99.90;;;;;;7302656;32;20172;-55
2023/10/10 22:01:27;;;;;;;9.02;4.65;;;15.70;99.90;;;;;;7299226;32;20211;-57
2023/10/10 22:05:30;;;;;;;10.23;5.25;;;15.70;99.90;;;;;;7298107;32;20190;-57
2023/10/10 22:09:32;;;;;;;12.75;5.37;;;15.70;99.90;;;;;;7301684;32;20104;-56
2023/10/10 22:13:37;;;;;;;9.68;5.07;;;15.60;99.90;;;;;;7301632;32;20168;-58
2023/10/10 22:17:39;;;;;;;10.77;5.87;;;15.60;99.90;;;;;;7298825;32;20179;-56
2023/10/10 22:21:41;;;;;;;9.00;5.30;;;15.60;99.90;;;;;;7297553;32;20648;-57
2023/10/10 22:25:43;;;;;;;9.00;4.78;;;15.50;99.90;;;;;;7295414;32;20578;-57
2023/10/10 22:29:44;;;;;;;8.68;5.20;;;15.40;99.90;;;;;;7296123;32;20482;-56
2023/10/10 22:33:46;;;;;;;11.45;4.78;;;15.40;99.90;;;;;;7298208;32;20126;-56
2023/10/10 22:37:53;;;;;;;11.05;5.32;;;15.40;99.90;;;;;;7300838;32;20100;-56
2023/10/10 22:41:54;;;;;;;7.87;4.30;;;15.30;99.90;;;;;;7298957;32;20132;-56
2023/10/10 22:45:56;;;;;;;7.53;4.85;;;15.20;99.90;;;;;;7301394;32;20117;-56
2023/10/10 22:50:00;;;;;;;11.18;5.25;;;15.30;99.90;;;;;;7298095;32;20581;-57
2023/10/10 22:54:02;;;;;;;10.25;5.18;;;15.10;99.90;;;;;;7296742;32;20123;-57
2023/10/10 22:58:06;;;;;;;10.45;4.82;;;15.10;99.90;;;;;;7299064;32;20132;-56
2023/10/10 23:02:11;;;;;;;9.45;4.70;;;15.10;99.90;;;;;;7296117;32;20211;-56
2023/10/10 23:06:12;;;;;;;9.45;5.45;;;15.10;99.90;;;;;;7299018;32;20108;-57
2023/10/10 23:10:16;;;;;;;8.75;5.22;;;15.00;99.90;;;;;;7295791;32;20100;-56
2023/10/10 23:14:19;;;;;;;14.40;4.78;;;15.00;99.90;;;;;;7301642;32;20123;-56
2023/10/10 23:18:20;;;;;;;8.15;5.00;;;15.00;99.90;;;;;;7299145;32;20128;-55
2023/10/10 23:22:22;;;;;;;8.85;4.87;;;15.00;99.90;;;;;;7293643;32;20236;-56
2023/10/10 23:26:25;;;;;;;9.45;4.75;;;15.00;99.90;;;;;;7294366;32;20687;-55
2023/10/10 23:30:29;;;;;;;10.30;4.32;;;14.90;99.90;;;;;;7301662;32;20266;-56
2023/10/10 23:34:31;;;;;;;9.15;4.75;;;14.90;99.90;;;;;;7294383;32;20450;-55
2023/10/10 23:38:33;;;;;;;8.23;4.45;;;14.90;99.90;;;;;;7296907;32;20096;-56